createdAt,value
2023-02-14T00:01:17.894Z,3.94
2023-02-14T00:03:44.627Z,3.92
2023-02-14T00:06:14.482Z,3.87
2023-02-14T00:08:44.309Z,3.82
2023-02-14T00:11:12.394Z,3.77
2023-02-14T00:13:38.975Z,3.74
2023-02-14T00:16:05.908Z,3.73
2023-02-14T00:18:55.758Z,3.70
2023-02-14T00:21:22.260Z,3.68
2023-02-14T00:23:48.825Z,3.68
2023-02-14T00:26:15.638Z,3.66
2023-02-14T00:28:42.259Z,3.64
2023-02-14T00:31:09.349Z,3.61
2023-02-14T00:33:36.488Z,3.58
2023-02-14T00:36:07.068Z,3.54
2023-02-14T00:38:34.355Z,3.51
2023-02-14T00:41:01.169Z,3.50
2023-02-14T00:43:27.857Z,3.47
2023-02-14T00:45:54.457Z,3.42
2023-02-14T00:48:21.073Z,3.36
2023-02-14T00:50:47.647Z,3.27
2023-02-14T00:53:14.593Z,3.21
2023-02-14T00:55:41.295Z,3.16
2023-02-14T00:58:07.910Z,3.13
2023-02-14T01:00:34.586Z,3.12
2023-02-14T01:03:01.081Z,3.12
2023-02-14T01:05:27.579Z,3.15
2023-02-14T01:07:54.185Z,3.17
2023-02-14T01:10:20.903Z,3.18
2023-02-14T01:12:47.482Z,3.21
2023-02-14T01:15:13.970Z,3.21
2023-02-14T01:17:40.459Z,3.25
2023-02-14T01:20:07.981Z,3.24
2023-02-14T01:22:38.075Z,3.22
2023-02-14T01:25:05.182Z,3.19
2023-02-14T01:27:31.658Z,3.18
2023-02-14T01:29:58.176Z,3.15
2023-02-14T01:32:24.875Z,3.15
2023-02-14T01:34:51.573Z,3.09
2023-02-14T01:37:18.094Z,3.03
2023-02-14T01:39:44.705Z,2.97
2023-02-14T01:42:11.394Z,2.91
2023-02-14T01:44:37.820Z,2.84
2023-02-14T01:47:07.862Z,2.83
2023-02-14T01:49:47.656Z,2.80
2023-02-14T01:52:25.204Z,2.76
2023-02-14T01:54:59.164Z,2.75
2023-02-14T01:57:30.178Z,2.71
2023-02-14T02:00:18.729Z,2.72
2023-02-14T02:02:45.903Z,2.72
2023-02-14T02:05:12.745Z,2.67
2023-02-14T02:07:39.296Z,2.66
2023-02-14T02:10:06.856Z,2.66
2023-02-14T02:12:38.111Z,2.70
2023-02-14T02:15:05.921Z,2.69
2023-02-14T02:17:49.233Z,2.67
2023-02-14T02:20:24.760Z,2.64
2023-02-14T02:23:25.524Z,2.56
2023-02-14T02:26:27.239Z,2.55
2023-02-14T02:29:20.459Z,2.54
2023-02-14T02:31:47.340Z,2.53
2023-02-14T02:34:41.618Z,2.48
2023-02-14T02:37:18.697Z,2.54
2023-02-14T02:40:00.168Z,2.54
2023-02-14T02:42:44.860Z,2.57
2023-02-14T02:45:20.724Z,2.62
2023-02-14T02:48:02.796Z,2.65
2023-02-14T02:50:51.308Z,2.61
2023-02-14T02:53:41.476Z,2.57
2023-02-14T02:56:34.658Z,2.51
2023-02-14T02:59:18.161Z,2.45
2023-02-14T03:01:49.756Z,2.41
2023-02-14T03:04:35.654Z,2.38
2023-02-14T03:07:23.077Z,2.36
2023-02-14T03:09:59.820Z,2.34
2023-02-14T03:12:35.169Z,2.34
2023-02-14T03:15:11.302Z,2.32
2023-02-14T03:18:07.444Z,2.29
2023-02-14T03:21:01.292Z,2.24
2023-02-14T03:23:31.428Z,2.24
2023-02-14T03:26:39.558Z,2.26
2023-02-14T03:29:17.024Z,2.26
2023-02-14T03:32:09.425Z,2.30
2023-02-14T03:34:52.387Z,2.33
2023-02-14T03:37:44.158Z,2.37
2023-02-14T03:40:17.024Z,2.40
2023-02-14T03:42:52.004Z,2.39
2023-02-14T03:45:22.517Z,2.36
2023-02-14T03:47:50.853Z,2.30
2023-02-14T03:50:19.540Z,2.25
2023-02-14T03:52:49.580Z,2.22
2023-02-14T03:55:17.723Z,2.19
2023-02-14T03:57:59.127Z,2.22
2023-02-14T04:00:26.835Z,2.28
2023-02-14T04:02:55.819Z,2.29
2023-02-14T04:05:25.535Z,2.25
2023-02-14T04:07:56.739Z,2.17
2023-02-14T04:10:23.804Z,2.15
2023-02-14T04:12:50.356Z,2.11
2023-02-14T04:15:17.218Z,2.09
2023-02-14T04:18:02.443Z,2.05
2023-02-14T04:20:29.693Z,2.02
2023-02-14T04:22:56.521Z,1.98
2023-02-14T04:25:23.841Z,1.96
2023-02-14T04:27:50.306Z,1.95
2023-02-14T04:30:21.673Z,1.94
2023-02-14T04:32:49.058Z,1.94
2023-02-14T04:35:15.708Z,1.93
2023-02-14T04:37:42.338Z,1.91
2023-02-14T04:40:09.418Z,1.91
2023-02-14T04:42:35.956Z,1.90
2023-02-14T04:45:04.204Z,1.91
2023-02-14T04:47:30.966Z,1.89
2023-02-14T04:49:57.693Z,1.88
2023-02-14T04:52:24.256Z,1.87
2023-02-14T04:54:50.791Z,1.85
2023-02-14T04:57:17.385Z,1.81
2023-02-14T04:59:44.148Z,1.78
2023-02-14T05:02:10.753Z,1.75
2023-02-14T05:04:37.335Z,1.74
2023-02-14T05:07:04.282Z,1.73
2023-02-14T05:09:30.813Z,1.71
2023-02-14T05:11:57.366Z,1.70
2023-02-14T05:14:23.977Z,1.65
2023-02-14T05:16:50.498Z,1.64
2023-02-14T05:19:17.394Z,1.60
2023-02-14T05:21:43.977Z,1.59
2023-02-14T05:24:10.474Z,1.63
2023-02-14T05:26:37.015Z,1.64
2023-02-14T05:29:03.536Z,1.67
2023-02-14T05:31:30.346Z,1.68
2023-02-14T05:33:56.952Z,1.74
2023-02-14T05:36:23.523Z,1.79
2023-02-14T05:38:50.001Z,1.81
2023-02-14T05:41:16.516Z,1.83
2023-02-14T05:43:43.033Z,1.82
2023-02-14T05:46:09.668Z,1.91
2023-02-14T05:48:36.227Z,1.93
2023-02-14T05:51:07.380Z,1.91
2023-02-14T05:53:34.490Z,1.92
2023-02-14T05:56:01.082Z,1.93
2023-02-14T05:58:27.630Z,1.91
2023-02-14T06:00:54.245Z,1.87
2023-02-14T06:03:20.822Z,1.89
2023-02-14T06:05:47.320Z,1.87
2023-02-14T06:08:13.981Z,1.83
2023-02-14T06:10:40.604Z,1.82
2023-02-14T06:13:08.985Z,1.83
2023-02-14T06:15:39.087Z,1.97
2023-02-14T06:18:05.957Z,2.18
2023-02-14T06:20:32.688Z,2.23
2023-02-14T06:22:59.249Z,2.24
2023-02-14T06:25:26.087Z,2.21
2023-02-14T06:27:56.637Z,2.20
2023-02-14T06:30:23.423Z,2.12
2023-02-14T06:32:49.987Z,2.06
2023-02-14T06:35:16.728Z,1.97
2023-02-14T06:37:45.182Z,1.90
2023-02-14T06:40:12.987Z,1.83
2023-02-14T06:42:40.070Z,1.77
2023-02-14T06:45:07.202Z,1.71
2023-02-14T06:47:35.152Z,1.67
2023-02-14T06:50:04.564Z,1.65
2023-02-14T06:52:34.687Z,1.65
2023-02-14T06:55:01.211Z,1.84
2023-02-14T06:57:27.898Z,1.87
2023-02-14T06:59:54.573Z,1.92
2023-02-14T07:02:24.220Z,1.92
2023-02-14T07:04:51.368Z,1.95
2023-02-14T07:07:18.012Z,2.11
2023-02-14T07:09:44.521Z,2.37
2023-02-14T07:12:11.031Z,2.71
2023-02-14T07:14:37.592Z,2.92
2023-02-14T07:17:04.263Z,3.04
2023-02-14T07:19:30.791Z,3.14
2023-02-14T07:21:57.499Z,3.39
2023-02-14T07:24:24.149Z,3.54
2023-02-14T07:26:50.761Z,3.62
2023-02-14T07:29:17.510Z,3.70
2023-02-14T07:31:44.228Z,3.80
2023-02-14T07:34:10.775Z,3.87
2023-02-14T07:36:38.790Z,4.01
2023-02-14T07:39:05.894Z,4.08
2023-02-14T07:41:32.477Z,4.09
2023-02-14T07:43:59.040Z,4.20
2023-02-14T07:46:25.732Z,4.27
2023-02-14T07:48:52.585Z,4.40
2023-02-14T07:51:19.168Z,-148.13
2023-02-14T07:53:45.830Z,-148.13
2023-02-14T07:56:12.363Z,-148.13
2023-02-14T07:58:38.910Z,-148.13
2023-02-14T08:01:05.631Z,-148.13
2023-02-14T08:03:32.160Z,-148.13
2023-02-14T08:05:58.720Z,-148.13
2023-02-14T08:08:27.049Z,-148.13
2023-02-14T08:10:53.627Z,-148.13
2023-02-14T08:13:20.734Z,-148.13
2023-02-14T08:16:05.820Z,-148.13
2023-02-14T08:18:38.036Z,-148.13
2023-02-14T08:21:06.637Z,-148.13
2023-02-14T08:23:33.471Z,-148.13
2023-02-14T08:26:00.273Z,-148.13
2023-02-14T08:28:27.126Z,-148.13
2023-02-14T08:30:54.075Z,-148.13
2023-02-14T08:33:21.334Z,-148.13
2023-02-14T08:35:48.127Z,-148.13
2023-02-14T08:38:14.691Z,-148.13
2023-02-14T08:40:41.602Z,-148.13
2023-02-14T08:43:08.305Z,-148.13
2023-02-14T08:45:35.013Z,-148.13
2023-02-14T08:48:08.321Z,-148.13
2023-02-14T08:50:35.878Z,-148.13
2023-02-14T08:53:07.254Z,-148.13
2023-02-14T08:55:34.652Z,-148.13
2023-02-14T08:58:02.318Z,-148.13
2023-02-14T09:00:29.002Z,-148.13
2023-02-14T09:02:55.626Z,-148.13
2023-02-14T09:05:23.454Z,-148.13
2023-02-14T09:07:50.407Z,-148.13
2023-02-14T09:10:18.617Z,-148.13
2023-02-14T09:12:45.711Z,-148.13
2023-02-14T09:15:12.887Z,-148.13
2023-02-14T09:17:40.059Z,-148.13
2023-02-14T09:20:10.741Z,-148.13
2023-02-14T09:22:37.589Z,-148.13
2023-02-14T09:25:04.747Z,-148.13
2023-02-14T09:27:32.361Z,-148.13
2023-02-14T09:29:59.056Z,-148.13
2023-02-14T09:32:26.596Z,-148.13
2023-02-14T09:34:53.175Z,-148.13
2023-02-14T09:37:19.779Z,-148.13
2023-02-14T09:39:46.409Z,-148.13
2023-02-14T09:42:40.537Z,-148.13
2023-02-14T09:45:25.320Z,-148.13
2023-02-14T09:48:05.993Z,-148.13
2023-02-14T09:51:08.034Z,-148.13
2023-02-14T09:53:44.702Z,-148.13
2023-02-14T09:56:27.524Z,-148.13
2023-02-14T09:59:02.465Z,-148.13
2023-02-14T10:01:41.975Z,-148.13
2023-02-14T10:04:29.776Z,-148.13
2023-02-14T10:06:59.170Z,-148.13
2023-02-14T10:09:47.899Z,-148.13
2023-02-14T10:12:37.389Z,-148.13
2023-02-14T10:15:17.582Z,-148.13
2023-02-14T10:17:47.261Z,-148.13
2023-02-14T10:20:35.897Z,-148.13
2023-02-14T10:23:37.931Z,-148.13
2023-02-14T10:26:05.965Z,-148.13
2023-02-14T10:28:39.095Z,-148.13
2023-02-14T10:31:31.699Z,-148.13
2023-02-14T10:34:17.785Z,-148.13
2023-02-14T10:37:22.135Z,-148.13
2023-02-14T10:40:04.800Z,-148.13
2023-02-14T10:43:10.132Z,-148.13
2023-02-14T10:46:06.908Z,-148.13
2023-02-14T10:48:42.321Z,-148.13
2023-02-14T10:51:34.155Z,-148.13
2023-02-14T10:54:21.800Z,-148.13
2023-02-14T10:57:23.879Z,-148.13
2023-02-14T11:00:08.529Z,-148.13
2023-02-14T11:02:40.124Z,-148.13
2023-02-14T11:05:08.424Z,-148.13
2023-02-14T11:07:34.983Z,-148.13
2023-02-14T11:10:01.738Z,-148.13
2023-02-14T11:12:37.448Z,-148.13
2023-02-14T11:15:23.138Z,-148.13
2023-02-14T11:17:50.029Z,-148.13
2023-02-14T11:20:19.978Z,-148.13
2023-02-14T11:22:46.659Z,-148.13
2023-02-14T11:25:20.534Z,-148.13
2023-02-14T11:27:50.155Z,-148.13
2023-02-14T11:30:30.422Z,-148.13
2023-02-14T11:32:57.351Z,-148.13
2023-02-14T11:35:27.032Z,-148.13
2023-02-14T11:37:57.582Z,-148.13
2023-02-14T11:40:27.778Z,-148.13
2023-02-14T11:43:12.832Z,-148.13
2023-02-14T11:45:41.462Z,-148.13
2023-02-14T11:48:24.828Z,-148.13
2023-02-14T11:51:11.078Z,-148.13
2023-02-14T11:54:00.640Z,-148.13
2023-02-14T11:56:44.581Z,-148.13
2023-02-14T11:59:12.657Z,-148.13
2023-02-14T12:01:39.168Z,-148.13
2023-02-14T12:04:09.064Z,-148.13
2023-02-14T12:06:36.608Z,-148.13
2023-02-14T12:09:24.844Z,-148.13
2023-02-14T12:11:59.418Z,-148.13
2023-02-14T12:14:33.770Z,-148.13
2023-02-14T12:17:10.088Z,-148.13
2023-02-14T12:19:58.560Z,-148.13
2023-02-14T12:22:33.665Z,-148.13
2023-02-14T12:25:03.782Z,-148.13
2023-02-14T12:27:35.529Z,-148.13
2023-02-14T12:30:04.295Z,-148.13
2023-02-14T12:32:32.085Z,-148.13
2023-02-14T12:35:44.263Z,-148.13
2023-02-14T12:38:25.547Z,-148.13
2023-02-14T12:41:40.660Z,-148.13
2023-02-14T12:44:16.311Z,-148.13
2023-02-14T12:46:49.039Z,-148.13
2023-02-14T12:49:31.545Z,-148.13
2023-02-14T12:52:35.597Z,-148.13
2023-02-14T12:55:28.600Z,-148.13
2023-02-14T12:58:05.972Z,-148.13
2023-02-14T13:00:54.429Z,-148.13
2023-02-14T13:03:42.288Z,-148.13
2023-02-14T13:06:19.246Z,-148.13
2023-02-14T13:09:01.276Z,-148.13
2023-02-14T13:11:44.151Z,-148.13
2023-02-14T13:14:20.336Z,-148.13
2023-02-14T13:17:21.037Z,-148.13
2023-02-14T13:20:17.494Z,-148.13
2023-02-14T13:22:44.029Z,-148.13
2023-02-14T13:25:33.713Z,-148.13
2023-02-14T13:28:03.184Z,-148.13
2023-02-14T13:30:32.382Z,-148.13
2023-02-14T13:33:03.501Z,-148.13
2023-02-14T13:35:30.500Z,-148.13
2023-02-14T13:38:06.083Z,-148.13
2023-02-14T13:40:32.884Z,-148.13
2023-02-14T13:43:00.834Z,-148.13
2023-02-14T13:45:30.589Z,-148.13
2023-02-14T13:48:15.116Z,-148.13
2023-02-14T13:51:01.782Z,-148.13
2023-02-14T13:53:40.717Z,-148.13
2023-02-14T13:56:13.406Z,-148.13
2023-02-14T13:58:47.697Z,-148.13
2023-02-14T14:01:28.324Z,-148.13
